sensor_id;sensor_type;location;lat;lon;timestamp;P1;durP1;ratioP1;P2;durP2;ratioP2
31836;SDS011;18401;49.344;6.240;2023-01-15T00:01:18;0.50;;;0.50;;
31836;SDS011;18401;49.344;6.240;2023-01-15T00:03:44;0.98;;;0.52;;
31836;SDS011;18401;49.344;6.240;2023-01-15T00:06:10;1.92;;;0.45;;
31836;SDS011;18401;49.344;6.240;2023-01-15T00:08:36;1.23;;;0.50;;
31836;SDS011;18401;49.344;6.240;2023-01-15T00:11:02;3.10;;;0.68;;
31836;SDS011;18401;49.344;6.240;2023-01-15T00:13:28;0.90;;;0.57;;
31836;SDS011;18401;49.344;6.240;2023-01-15T00:16:00;0.50;;;0.50;;
31836;SDS011;18401;49.344;6.240;2023-01-15T00:18:34;1.23;;;0.70;;
31836;SDS011;18401;49.344;6.240;2023-01-15T00:21:05;0.52;;;0.47;;
31836;SDS011;18401;49.344;6.240;2023-01-15T00:23:32;0.82;;;0.50;;
31836;SDS011;18401;49.344;6.240;2023-01-15T00:26:17;2.20;;;0.52;;
31836;SDS011;18401;49.344;6.240;2023-01-15T00:29:03;0.60;;;0.60;;
31836;SDS011;18401;49.344;6.240;2023-01-15T00:31:29;3.47;;;0.73;;
31836;SDS011;18401;49.344;6.240;2023-01-15T00:33:57;1.52;;;0.60;;
31836;SDS011;18401;49.344;6.240;2023-01-15T00:36:22;4.13;;;0.60;;
31836;SDS011;18401;49.344;6.240;2023-01-15T00:38:49;0.52;;;0.52;;
31836;SDS011;18401;49.344;6.240;2023-01-15T00:41:15;1.27;;;0.40;;
31836;SDS011;18401;49.344;6.240;2023-01-15T00:43:41;1.92;;;0.60;;
31836;SDS011;18401;49.344;6.240;2023-01-15T00:46:07;0.85;;;0.50;;
31836;SDS011;18401;49.344;6.240;2023-01-15T00:48:35;2.40;;;0.57;;
31836;SDS011;18401;49.344;6.240;2023-01-15T00:51:02;1.30;;;0.50;;
31836;SDS011;18401;49.344;6.240;2023-01-15T00:53:28;2.38;;;0.40;;
31836;SDS011;18401;49.344;6.240;2023-01-15T00:55:54;0.38;;;0.38;;
31836;SDS011;18401;49.344;6.240;2023-01-15T00:58:20;0.30;;;0.30;;
31836;SDS011;18401;49.344;6.240;2023-01-15T01:00:51;1.55;;;0.40;;
31836;SDS011;18401;49.344;6.240;2023-01-15T01:03:18;3.33;;;0.70;;
31836;SDS011;18401;49.344;6.240;2023-01-15T01:05:44;1.05;;;0.40;;
31836;SDS011;18401;49.344;6.240;2023-01-15T01:08:10;0.50;;;0.50;;
31836;SDS011;18401;49.344;6.240;2023-01-15T01:10:35;2.53;;;0.65;;
31836;SDS011;18401;49.344;6.240;2023-01-15T01:13:01;1.27;;;0.60;;
31836;SDS011;18401;49.344;6.240;2023-01-15T01:15:27;1.90;;;0.40;;
31836;SDS011;18401;49.344;6.240;2023-01-15T01:17:52;0.50;;;0.45;;
31836;SDS011;18401;49.344;6.240;2023-01-15T01:20:18;3.10;;;0.50;;
31836;SDS011;18401;49.344;6.240;2023-01-15T01:22:46;1.42;;;0.68;;
31836;SDS011;18401;49.344;6.240;2023-01-15T01:25:13;2.53;;;0.60;;
31836;SDS011;18401;49.344;6.240;2023-01-15T01:27:39;1.90;;;0.60;;
31836;SDS011;18401;49.344;6.240;2023-01-15T01:30:05;0.40;;;0.40;;
31836;SDS011;18401;49.344;6.240;2023-01-15T01:32:31;1.05;;;0.52;;
31836;SDS011;18401;49.344;6.240;2023-01-15T01:34:56;0.40;;;0.40;;
31836;SDS011;18401;49.344;6.240;2023-01-15T01:37:22;0.40;;;0.40;;
31836;SDS011;18401;49.344;6.240;2023-01-15T01:39:48;1.55;;;0.50;;
31836;SDS011;18401;49.344;6.240;2023-01-15T01:42:14;0.30;;;0.30;;
31836;SDS011;18401;49.344;6.240;2023-01-15T01:47:08;0.40;;;0.40;;
31836;SDS011;18401;49.344;6.240;2023-01-15T01:49:36;0.75;;;0.40;;
31836;SDS011;18401;49.344;6.240;2023-01-15T01:52:08;0.30;;;0.30;;
31836;SDS011;18401;49.344;6.240;2023-01-15T01:54:38;0.40;;;0.40;;
31836;SDS011;18401;49.344;6.240;2023-01-15T01:57:05;0.40;;;0.40;;
31836;SDS011;18401;49.344;6.240;2023-01-15T01:59:32;0.70;;;0.47;;
31836;SDS011;18401;49.344;6.240;2023-01-15T02:01:59;0.30;;;0.30;;
31836;SDS011;18401;49.344;6.240;2023-01-15T02:04:25;0.40;;;0.40;;
31836;SDS011;18401;49.344;6.240;2023-01-15T02:06:53;0.40;;;0.40;;
31836;SDS011;18401;49.344;6.240;2023-01-15T02:09:19;0.40;;;0.40;;
31836;SDS011;18401;49.344;6.240;2023-01-15T02:11:45;0.40;;;0.40;;
31836;SDS011;18401;49.344;6.240;2023-01-15T02:17:00;0.43;;;0.40;;
31836;SDS011;18401;49.344;6.240;2023-01-15T02:20:31;1.50;;;0.60;;
31836;SDS011;18401;49.344;6.240;2023-01-15T02:25:53;0.85;;;0.57;;
31836;SDS011;18401;49.344;6.240;2023-01-15T02:28:41;0.40;;;0.40;;
31836;SDS011;18401;49.344;6.240;2023-01-15T02:31:24;2.38;;;0.60;;
31836;SDS011;18401;49.344;6.240;2023-01-15T02:33:55;0.52;;;0.50;;
31836;SDS011;18401;49.344;6.240;2023-01-15T02:36:28;1.52;;;0.63;;
31836;SDS011;18401;49.344;6.240;2023-01-15T02:38:58;0.88;;;0.57;;
31836;SDS011;18401;49.344;6.240;2023-01-15T02:41:30;2.70;;;0.60;;
31836;SDS011;18401;49.344;6.240;2023-01-15T02:44:00;0.60;;;0.57;;
31836;SDS011;18401;49.344;6.240;2023-01-15T02:46:29;2.22;;;0.60;;
31836;SDS011;18401;49.344;6.240;2023-01-15T02:48:57;0.60;;;0.60;;
31836;SDS011;18401;49.344;6.240;2023-01-15T02:51:27;2.95;;;0.60;;
31836;SDS011;18401;49.344;6.240;2023-01-15T02:54:00;1.13;;;0.60;;
31836;SDS011;18401;49.344;6.240;2023-01-15T02:56:30;1.52;;;0.60;;
31836;SDS011;18401;49.344;6.240;2023-01-15T02:59:03;2.03;;;0.63;;
31836;SDS011;18401;49.344;6.240;2023-01-15T03:01:33;0.50;;;0.50;;
31836;SDS011;18401;49.344;6.240;2023-01-15T03:09:33;0.70;;;0.70;;
31836;SDS011;18401;49.344;6.240;2023-01-15T03:12:20;2.33;;;0.80;;
31836;SDS011;18401;49.344;6.240;2023-01-15T03:17:36;2.35;;;1.35;;
31836;SDS011;18401;49.344;6.240;2023-01-15T03:20:10;6.15;;;1.48;;
31836;SDS011;18401;49.344;6.240;2023-01-15T03:22:42;3.97;;;1.52;;
31836;SDS011;18401;49.344;6.240;2023-01-15T03:25:11;2.50;;;1.20;;
31836;SDS011;18401;49.344;6.240;2023-01-15T03:27:43;1.77;;;1.20;;
31836;SDS011;18401;49.344;6.240;2023-01-15T03:32:43;2.97;;;0.90;;
31836;SDS011;18401;49.344;6.240;2023-01-15T03:35:38;0.77;;;0.77;;
31836;SDS011;18401;49.344;6.240;2023-01-15T03:38:03;2.10;;;0.80;;
31836;SDS011;18401;49.344;6.240;2023-01-15T03:40:28;2.03;;;0.90;;
31836;SDS011;18401;49.344;6.240;2023-01-15T03:42:57;2.25;;;0.63;;
31836;SDS011;18401;49.344;6.240;2023-01-15T03:45:48;0.57;;;0.57;;
31836;SDS011;18401;49.344;6.240;2023-01-15T03:51:07;1.02;;;0.90;;
31836;SDS011;18401;49.344;6.240;2023-01-15T03:53:50;1.13;;;0.93;;
31836;SDS011;18401;49.344;6.240;2023-01-15T03:56:32;7.45;;;1.10;;
31836;SDS011;18401;49.344;6.240;2023-01-15T03:59:25;3.22;;;1.13;;
31836;SDS011;18401;49.344;6.240;2023-01-15T04:02:24;1.23;;;0.88;;
31836;SDS011;18401;49.344;6.240;2023-01-15T04:04:54;1.65;;;0.80;;
31836;SDS011;18401;49.344;6.240;2023-01-15T04:07:22;1.50;;;0.80;;
31836;SDS011;18401;49.344;6.240;2023-01-15T04:09:48;2.00;;;0.80;;
31836;SDS011;18401;49.344;6.240;2023-01-15T04:12:14;0.50;;;0.50;;
31836;SDS011;18401;49.344;6.240;2023-01-15T04:14:40;0.65;;;0.65;;
31836;SDS011;18401;49.344;6.240;2023-01-15T04:17:06;0.47;;;0.47;;
31836;SDS011;18401;49.344;6.240;2023-01-15T04:19:32;0.75;;;0.60;;
31836;SDS011;18401;49.344;6.240;2023-01-15T04:21:58;1.45;;;0.60;;
31836;SDS011;18401;49.344;6.240;2023-01-15T04:24:24;1.35;;;0.70;;
31836;SDS011;18401;49.344;6.240;2023-01-15T04:26:50;0.70;;;0.70;;
31836;SDS011;18401;49.344;6.240;2023-01-15T04:29:15;1.13;;;0.80;;
31836;SDS011;18401;49.344;6.240;2023-01-15T04:31:41;1.75;;;0.95;;
31836;SDS011;18401;49.344;6.240;2023-01-15T04:34:07;1.17;;;1.10;;
31836;SDS011;18401;49.344;6.240;2023-01-15T04:36:32;4.38;;;1.35;;
31836;SDS011;18401;49.344;6.240;2023-01-15T04:39:02;1.20;;;1.10;;
31836;SDS011;18401;49.344;6.240;2023-01-15T04:41:28;1.77;;;1.20;;
31836;SDS011;18401;49.344;6.240;2023-01-15T04:44:13;2.78;;;1.30;;
31836;SDS011;18401;49.344;6.240;2023-01-15T04:46:39;2.60;;;1.75;;
31836;SDS011;18401;49.344;6.240;2023-01-15T04:49:11;1.98;;;1.73;;
31836;SDS011;18401;49.344;6.240;2023-01-15T04:51:38;0.73;;;0.70;;
31836;SDS011;18401;49.344;6.240;2023-01-15T04:54:04;0.90;;;0.88;;
31836;SDS011;18401;49.344;6.240;2023-01-15T04:56:31;3.03;;;1.25;;
31836;SDS011;18401;49.344;6.240;2023-01-15T04:59:01;2.72;;;1.00;;
31836;SDS011;18401;49.344;6.240;2023-01-15T05:01:27;1.00;;;1.00;;
31836;SDS011;18401;49.344;6.240;2023-01-15T05:03:53;2.95;;;1.10;;
31836;SDS011;18401;49.344;6.240;2023-01-15T05:06:19;2.70;;;1.20;;
31836;SDS011;18401;49.344;6.240;2023-01-15T05:08:44;4.78;;;1.00;;
31836;SDS011;18401;49.344;6.240;2023-01-15T05:11:10;0.60;;;0.60;;
31836;SDS011;18401;49.344;6.240;2023-01-15T05:13:36;0.73;;;0.70;;
31836;SDS011;18401;49.344;6.240;2023-01-15T05:16:09;1.05;;;0.60;;
31836;SDS011;18401;49.344;6.240;2023-01-15T05:18:36;4.67;;;0.77;;
31836;SDS011;18401;49.344;6.240;2023-01-15T05:21:02;1.15;;;0.88;;
31836;SDS011;18401;49.344;6.240;2023-01-15T05:23:28;0.60;;;0.60;;
31836;SDS011;18401;49.344;6.240;2023-01-15T05:25:54;0.55;;;0.55;;
31836;SDS011;18401;49.344;6.240;2023-01-15T05:28:19;0.50;;;0.50;;
31836;SDS011;18401;49.344;6.240;2023-01-15T05:30:45;0.50;;;0.50;;
31836;SDS011;18401;49.344;6.240;2023-01-15T05:33:11;0.50;;;0.50;;
31836;SDS011;18401;49.344;6.240;2023-01-15T05:35:36;0.50;;;0.50;;
31836;SDS011;18401;49.344;6.240;2023-01-15T05:38:02;1.30;;;0.50;;
31836;SDS011;18401;49.344;6.240;2023-01-15T05:40:30;0.57;;;0.50;;
31836;SDS011;18401;49.344;6.240;2023-01-15T05:42:56;0.50;;;0.50;;
31836;SDS011;18401;49.344;6.240;2023-01-15T05:45:22;0.50;;;0.50;;
31836;SDS011;18401;49.344;6.240;2023-01-15T05:47:48;0.63;;;0.52;;
31836;SDS011;18401;49.344;6.240;2023-01-15T05:50:14;0.60;;;0.60;;
31836;SDS011;18401;49.344;6.240;2023-01-15T05:52:39;2.58;;;0.75;;
31836;SDS011;18401;49.344;6.240;2023-01-15T05:55:05;1.48;;;0.70;;
31836;SDS011;18401;49.344;6.240;2023-01-15T05:57:31;1.10;;;0.68;;
31836;SDS011;18401;49.344;6.240;2023-01-15T05:59:57;0.57;;;0.55;;
31836;SDS011;18401;49.344;6.240;2023-01-15T06:02:23;1.30;;;0.70;;
31836;SDS011;18401;49.344;6.240;2023-01-15T06:04:49;0.88;;;0.73;;
31836;SDS011;18401;49.344;6.240;2023-01-15T06:07:14;5.25;;;0.90;;
31836;SDS011;18401;49.344;6.240;2023-01-15T06:09:42;2.63;;;0.80;;
31836;SDS011;18401;49.344;6.240;2023-01-15T06:12:08;1.48;;;0.68;;
31836;SDS011;18401;49.344;6.240;2023-01-15T06:14:34;1.30;;;0.70;;
31836;SDS011;18401;49.344;6.240;2023-01-15T06:16:59;7.60;;;1.30;;
31836;SDS011;18401;49.344;6.240;2023-01-15T06:19:25;0.82;;;0.75;;
31836;SDS011;18401;49.344;6.240;2023-01-15T06:21:51;8.43;;;1.38;;
31836;SDS011;18401;49.344;6.240;2023-01-15T06:24:17;5.72;;;0.82;;
31836;SDS011;18401;49.344;6.240;2023-01-15T06:26:44;1.67;;;0.88;;
31836;SDS011;18401;49.344;6.240;2023-01-15T06:29:09;8.23;;;0.85;;
31836;SDS011;18401;49.344;6.240;2023-01-15T06:31:35;1.20;;;0.80;;
31836;SDS011;18401;49.344;6.240;2023-01-15T06:34:01;5.22;;;0.95;;
31836;SDS011;18401;49.344;6.240;2023-01-15T06:36:27;4.72;;;1.08;;
31836;SDS011;18401;49.344;6.240;2023-01-15T06:38:53;11.52;;;1.13;;
31836;SDS011;18401;49.344;6.240;2023-01-15T06:41:23;7.53;;;1.30;;
31836;SDS011;18401;49.344;6.240;2023-01-15T06:44:09;10.02;;;2.97;;
31836;SDS011;18401;49.344;6.240;2023-01-15T06:47:00;1.38;;;1.17;;
31836;SDS011;18401;49.344;6.240;2023-01-15T06:49:45;3.72;;;1.10;;
31836;SDS011;18401;49.344;6.240;2023-01-15T06:52:12;3.45;;;1.10;;
31836;SDS011;18401;49.344;6.240;2023-01-15T06:54:38;3.70;;;1.00;;
31836;SDS011;18401;49.344;6.240;2023-01-15T06:57:03;5.88;;;1.08;;
31836;SDS011;18401;49.344;6.240;2023-01-15T06:59:30;5.30;;;1.20;;
31836;SDS011;18401;49.344;6.240;2023-01-15T07:01:56;3.03;;;0.90;;
31836;SDS011;18401;49.344;6.240;2023-01-15T07:04:21;6.90;;;1.20;;
31836;SDS011;18401;49.344;6.240;2023-01-15T07:06:47;3.78;;;0.80;;
31836;SDS011;18401;49.344;6.240;2023-01-15T07:09:13;2.72;;;1.08;;
31836;SDS011;18401;49.344;6.240;2023-01-15T07:11:38;4.07;;;1.05;;
31836;SDS011;18401;49.344;6.240;2023-01-15T07:14:17;5.50;;;1.10;;
31836;SDS011;18401;49.344;6.240;2023-01-15T07:16:44;3.38;;;0.75;;
31836;SDS011;18401;49.344;6.240;2023-01-15T07:19:10;6.40;;;1.13;;
31836;SDS011;18401;49.344;6.240;2023-01-15T07:21:35;6.20;;;0.98;;
31836;SDS011;18401;49.344;6.240;2023-01-15T07:24:01;2.45;;;1.20;;
31836;SDS011;18401;49.344;6.240;2023-01-15T07:26:27;2.03;;;0.85;;
31836;SDS011;18401;49.344;6.240;2023-01-15T07:28:53;4.35;;;0.82;;
31836;SDS011;18401;49.344;6.240;2023-01-15T07:31:19;4.50;;;1.08;;
31836;SDS011;18401;49.344;6.240;2023-01-15T07:33:44;5.78;;;0.82;;
31836;SDS011;18401;49.344;6.240;2023-01-15T07:36:10;1.92;;;0.90;;
31836;SDS011;18401;49.344;6.240;2023-01-15T07:38:36;2.30;;;1.00;;
31836;SDS011;18401;49.344;6.240;2023-01-15T07:41:02;1.27;;;1.00;;
31836;SDS011;18401;49.344;6.240;2023-01-15T07:43:46;4.68;;;1.17;;
31836;SDS011;18401;49.344;6.240;2023-01-15T07:46:30;5.25;;;0.98;;
31836;SDS011;18401;49.344;6.240;2023-01-15T07:49:14;1.85;;;0.90;;
31836;SDS011;18401;49.344;6.240;2023-01-15T07:51:58;0.70;;;0.70;;
31836;SDS011;18401;49.344;6.240;2023-01-15T07:54:24;6.20;;;1.08;;
31836;SDS011;18401;49.344;6.240;2023-01-15T07:56:50;1.80;;;0.80;;
31836;SDS011;18401;49.344;6.240;2023-01-15T07:59:17;2.67;;;0.85;;
31836;SDS011;18401;49.344;6.240;2023-01-15T08:01:43;1.08;;;0.70;;
31836;SDS011;18401;49.344;6.240;2023-01-15T08:04:09;4.50;;;0.82;;
31836;SDS011;18401;49.344;6.240;2023-01-15T08:06:35;1.27;;;0.70;;
31836;SDS011;18401;49.344;6.240;2023-01-15T08:09:01;1.30;;;0.70;;
31836;SDS011;18401;49.344;6.240;2023-01-15T08:11:27;2.08;;;0.95;;
31836;SDS011;18401;49.344;6.240;2023-01-15T08:14:12;3.70;;;1.20;;
31836;SDS011;18401;49.344;6.240;2023-01-15T08:16:56;3.13;;;0.80;;
31836;SDS011;18401;49.344;6.240;2023-01-15T08:19:21;3.17;;;0.80;;
31836;SDS011;18401;49.344;6.240;2023-01-15T08:21:49;2.35;;;0.70;;
31836;SDS011;18401;49.344;6.240;2023-01-15T08:24:15;7.38;;;1.52;;
31836;SDS011;18401;49.344;6.240;2023-01-15T08:26:41;1.67;;;1.00;;
31836;SDS011;18401;49.344;6.240;2023-01-15T08:29:07;3.03;;;1.00;;
31836;SDS011;18401;49.344;6.240;2023-01-15T08:31:32;5.85;;;0.88;;
31836;SDS011;18401;49.344;6.240;2023-01-15T08:33:58;4.03;;;0.90;;
31836;SDS011;18401;49.344;6.240;2023-01-15T08:36:24;3.58;;;0.77;;
31836;SDS011;18401;49.344;6.240;2023-01-15T08:38:50;0.60;;;0.60;;
31836;SDS011;18401;49.344;6.240;2023-01-15T08:41:16;0.70;;;0.70;;
31836;SDS011;18401;49.344;6.240;2023-01-15T08:43:41;3.40;;;0.95;;
31836;SDS011;18401;49.344;6.240;2023-01-15T08:46:09;1.85;;;0.80;;
31836;SDS011;18401;49.344;6.240;2023-01-15T08:48:35;1.77;;;1.00;;
31836;SDS011;18401;49.344;6.240;2023-01-15T08:51:05;2.78;;;0.80;;
31836;SDS011;18401;49.344;6.240;2023-01-15T08:53:31;3.20;;;0.90;;
31836;SDS011;18401;49.344;6.240;2023-01-15T08:55:57;3.47;;;0.70;;
31836;SDS011;18401;49.344;6.240;2023-01-15T08:58:23;1.48;;;0.80;;
31836;SDS011;18401;49.344;6.240;2023-01-15T09:00:51;4.35;;;0.60;;
31836;SDS011;18401;49.344;6.240;2023-01-15T09:03:16;3.50;;;0.90;;
31836;SDS011;18401;49.344;6.240;2023-01-15T09:05:43;3.33;;;0.80;;
31836;SDS011;18401;49.344;6.240;2023-01-15T09:08:09;2.05;;;0.70;;
31836;SDS011;18401;49.344;6.240;2023-01-15T09:10:34;0.88;;;0.80;;
31836;SDS011;18401;49.344;6.240;2023-01-15T09:13:00;1.83;;;0.82;;
31836;SDS011;18401;49.344;6.240;2023-01-15T09:15:27;2.33;;;0.85;;
31836;SDS011;18401;49.344;6.240;2023-01-15T09:17:54;2.13;;;0.75;;
31836;SDS011;18401;49.344;6.240;2023-01-15T09:20:20;5.00;;;0.80;;
31836;SDS011;18401;49.344;6.240;2023-01-15T09:22:47;2.30;;;1.02;;
31836;SDS011;18401;49.344;6.240;2023-01-15T09:25:13;4.53;;;0.90;;
31836;SDS011;18401;49.344;6.240;2023-01-15T09:27:40;4.18;;;0.90;;
31836;SDS011;18401;49.344;6.240;2023-01-15T09:30:06;1.83;;;0.85;;
31836;SDS011;18401;49.344;6.240;2023-01-15T09:32:34;2.95;;;0.93;;
31836;SDS011;18401;49.344;6.240;2023-01-15T09:35:00;3.83;;;0.90;;
31836;SDS011;18401;49.344;6.240;2023-01-15T09:37:26;4.43;;;0.90;;
31836;SDS011;18401;49.344;6.240;2023-01-15T09:39:52;3.15;;;1.20;;
31836;SDS011;18401;49.344;6.240;2023-01-15T09:42:23;4.88;;;1.05;;
31836;SDS011;18401;49.344;6.240;2023-01-15T09:45:19;4.95;;;1.35;;
31836;SDS011;18401;49.344;6.240;2023-01-15T09:51:03;4.93;;;1.55;;
31836;SDS011;18401;49.344;6.240;2023-01-15T09:56:19;5.25;;;1.60;;
31836;SDS011;18401;49.344;6.240;2023-01-15T09:58:47;1.20;;;1.08;;
31836;SDS011;18401;49.344;6.240;2023-01-15T10:01:15;5.00;;;1.27;;
31836;SDS011;18401;49.344;6.240;2023-01-15T10:03:53;4.68;;;1.17;;
31836;SDS011;18401;49.344;6.240;2023-01-15T10:06:26;5.90;;;1.45;;
31836;SDS011;18401;49.344;6.240;2023-01-15T10:09:40;5.35;;;1.08;;
31836;SDS011;18401;49.344;6.240;2023-01-15T10:11:50;7.13;;;1.27;;
31836;SDS011;18401;49.344;6.240;2023-01-15T10:14:46;3.08;;;1.10;;
31836;SDS011;18401;49.344;6.240;2023-01-15T10:17:57;5.15;;;1.13;;
31836;SDS011;18401;49.344;6.240;2023-01-15T10:20:05;5.32;;;1.15;;
31836;SDS011;18401;49.344;6.240;2023-01-15T10:25:48;4.88;;;0.93;;
31836;SDS011;18401;49.344;6.240;2023-01-15T10:28:22;7.50;;;1.10;;
31836;SDS011;18401;49.344;6.240;2023-01-15T10:30:55;3.95;;;0.85;;
31836;SDS011;18401;49.344;6.240;2023-01-15T10:33:44;1.60;;;0.90;;
31836;SDS011;18401;49.344;6.240;2023-01-15T10:36:15;2.45;;;1.00;;
31836;SDS011;18401;49.344;6.240;2023-01-15T10:41:29;4.57;;;0.88;;
31836;SDS011;18401;49.344;6.240;2023-01-15T10:44:12;5.93;;;1.10;;
31836;SDS011;18401;49.344;6.240;2023-01-15T10:46:44;3.13;;;0.85;;
31836;SDS011;18401;49.344;6.240;2023-01-15T10:49:19;3.58;;;0.88;;
31836;SDS011;18401;49.344;6.240;2023-01-15T10:51:51;4.22;;;0.70;;
31836;SDS011;18401;49.344;6.240;2023-01-15T10:54:55;5.25;;;0.88;;
31836;SDS011;18401;49.344;6.240;2023-01-15T10:57:27;0.70;;;0.70;;
31836;SDS011;18401;49.344;6.240;2023-01-15T11:00:10;4.95;;;1.20;;
31836;SDS011;18401;49.344;6.240;2023-01-15T11:02:38;3.78;;;1.10;;
31836;SDS011;18401;49.344;6.240;2023-01-15T11:05:13;8.85;;;1.20;;
31836;SDS011;18401;49.344;6.240;2023-01-15T11:07:45;3.83;;;1.25;;
31836;SDS011;18401;49.344;6.240;2023-01-15T11:10:13;4.55;;;0.90;;
31836;SDS011;18401;49.344;6.240;2023-01-15T11:12:51;3.33;;;0.95;;
31836;SDS011;18401;49.344;6.240;2023-01-15T11:15:35;1.40;;;0.70;;
31836;SDS011;18401;49.344;6.240;2023-01-15T11:18:26;5.95;;;1.50;;
31836;SDS011;18401;49.344;6.240;2023-01-15T11:21:15;3.78;;;1.00;;
31836;SDS011;18401;49.344;6.240;2023-01-15T11:23:42;6.10;;;1.20;;
31836;SDS011;18401;49.344;6.240;2023-01-15T11:26:08;6.07;;;0.88;;
31836;SDS011;18401;49.344;6.240;2023-01-15T11:28:41;2.63;;;1.00;;
31836;SDS011;18401;49.344;6.240;2023-01-15T11:31:09;6.82;;;0.90;;
31836;SDS011;18401;49.344;6.240;2023-01-15T11:33:36;3.92;;;0.85;;
31836;SDS011;18401;49.344;6.240;2023-01-15T11:36:04;3.20;;;1.00;;
31836;SDS011;18401;49.344;6.240;2023-01-15T11:38:42;9.02;;;1.10;;
31836;SDS011;18401;49.344;6.240;2023-01-15T11:43:57;5.63;;;1.02;;
31836;SDS011;18401;49.344;6.240;2023-01-15T11:46:44;8.13;;;1.55;;
31836;SDS011;18401;49.344;6.240;2023-01-15T11:49:28;9.93;;;1.10;;
31836;SDS011;18401;49.344;6.240;2023-01-15T11:52:17;5.28;;;1.17;;
31836;SDS011;18401;49.344;6.240;2023-01-15T11:54:47;5.32;;;1.10;;
31836;SDS011;18401;49.344;6.240;2023-01-15T11:57:25;7.53;;;1.48;;
31836;SDS011;18401;49.344;6.240;2023-01-15T11:59:53;3.50;;;1.00;;
31836;SDS011;18401;49.344;6.240;2023-01-15T12:07:19;1.98;;;1.02;;
31836;SDS011;18401;49.344;6.240;2023-01-15T12:13:08;3.28;;;0.82;;
31836;SDS011;18401;49.344;6.240;2023-01-15T12:15:45;4.65;;;0.80;;
31836;SDS011;18401;49.344;6.240;2023-01-15T12:30:18;3.38;;;1.00;;
31836;SDS011;18401;49.344;6.240;2023-01-15T12:32:57;6.85;;;0.98;;
31836;SDS011;18401;49.344;6.240;2023-01-15T12:35:31;5.35;;;1.15;;
31836;SDS011;18401;49.344;6.240;2023-01-15T12:40:39;4.63;;;0.82;;
31836;SDS011;18401;49.344;6.240;2023-01-15T12:43:13;6.97;;;1.30;;
31836;SDS011;18401;49.344;6.240;2023-01-15T12:46:04;4.55;;;1.48;;
31836;SDS011;18401;49.344;6.240;2023-01-15T12:48:51;7.13;;;1.63;;
31836;SDS011;18401;49.344;6.240;2023-01-15T12:51:27;9.13;;;1.20;;
31836;SDS011;18401;49.344;6.240;2023-01-15T12:54:02;5.13;;;1.00;;
31836;SDS011;18401;49.344;6.240;2023-01-15T12:59:56;8.85;;;1.50;;
31836;SDS011;18401;49.344;6.240;2023-01-15T13:02:09;7.60;;;1.10;;
31836;SDS011;18401;49.344;6.240;2023-01-15T13:10:47;4.53;;;0.90;;
31836;SDS011;18401;49.344;6.240;2023-01-15T13:13:15;6.68;;;1.02;;
31836;SDS011;18401;49.344;6.240;2023-01-15T13:21:17;5.57;;;0.93;;
31836;SDS011;18401;49.344;6.240;2023-01-15T13:37:29;5.20;;;1.35;;
31836;SDS011;18401;49.344;6.240;2023-01-15T13:40:00;15.05;;;2.08;;
31836;SDS011;18401;49.344;6.240;2023-01-15T13:42:34;4.13;;;1.27;;
31836;SDS011;18401;49.344;6.240;2023-01-15T13:47:32;3.70;;;0.90;;
31836;SDS011;18401;49.344;6.240;2023-01-15T13:50:03;4.45;;;0.85;;
31836;SDS011;18401;49.344;6.240;2023-01-15T13:52:37;10.32;;;1.60;;
31836;SDS011;18401;49.344;6.240;2023-01-15T13:55:10;11.73;;;2.35;;
31836;SDS011;18401;49.344;6.240;2023-01-15T13:57:47;4.28;;;1.23;;
31836;SDS011;18401;49.344;6.240;2023-01-15T14:02:52;8.65;;;1.45;;
31836;SDS011;18401;49.344;6.240;2023-01-15T14:07:56;4.13;;;1.33;;
31836;SDS011;18401;49.344;6.240;2023-01-15T14:10:24;15.98;;;1.35;;
31836;SDS011;18401;49.344;6.240;2023-01-15T14:13:10;13.68;;;1.90;;
31836;SDS011;18401;49.344;6.240;2023-01-15T14:16:03;11.65;;;1.52;;
31836;SDS011;18401;49.344;6.240;2023-01-15T14:30:22;7.65;;;1.30;;
31836;SDS011;18401;49.344;6.240;2023-01-15T14:36:17;6.20;;;1.25;;
31836;SDS011;18401;49.344;6.240;2023-01-15T14:38:51;11.05;;;1.60;;
31836;SDS011;18401;49.344;6.240;2023-01-15T14:41:27;10.30;;;1.70;;
31836;SDS011;18401;49.344;6.240;2023-01-15T14:44:24;11.90;;;1.42;;
31836;SDS011;18401;49.344;6.240;2023-01-15T14:46:56;3.30;;;0.90;;
31836;SDS011;18401;49.344;6.240;2023-01-15T14:49:29;6.88;;;1.42;;
31836;SDS011;18401;49.344;6.240;2023-01-15T14:51:56;8.73;;;1.10;;
31836;SDS011;18401;49.344;6.240;2023-01-15T14:54:23;11.85;;;1.48;;
31836;SDS011;18401;49.344;6.240;2023-01-15T14:56:54;5.15;;;1.30;;
31836;SDS011;18401;49.344;6.240;2023-01-15T14:59:25;9.02;;;1.65;;
31836;SDS011;18401;49.344;6.240;2023-01-15T15:02:01;5.30;;;1.42;;
31836;SDS011;18401;49.344;6.240;2023-01-15T15:09:44;10.88;;;1.67;;
31836;SDS011;18401;49.344;6.240;2023-01-15T15:12:18;9.45;;;1.17;;
31836;SDS011;18401;49.344;6.240;2023-01-15T15:17:54;4.03;;;1.00;;
31836;SDS011;18401;49.344;6.240;2023-01-15T15:20:43;4.60;;;1.08;;
31836;SDS011;18401;49.344;6.240;2023-01-15T15:26:32;7.40;;;2.00;;
31836;SDS011;18401;49.344;6.240;2023-01-15T15:31:27;10.20;;;1.83;;
31836;SDS011;18401;49.344;6.240;2023-01-15T15:33:56;5.28;;;1.30;;
31836;SDS011;18401;49.344;6.240;2023-01-15T15:36:23;10.35;;;1.92;;
31836;SDS011;18401;49.344;6.240;2023-01-15T15:38:56;8.80;;;1.30;;
31836;SDS011;18401;49.344;6.240;2023-01-15T15:41:24;8.98;;;1.30;;
31836;SDS011;18401;49.344;6.240;2023-01-15T15:44:39;6.40;;;1.17;;
31836;SDS011;18401;49.344;6.240;2023-01-15T15:47:38;5.47;;;1.20;;
31836;SDS011;18401;49.344;6.240;2023-01-15T15:50:25;5.72;;;1.42;;
31836;SDS011;18401;49.344;6.240;2023-01-15T15:52:52;5.85;;;1.55;;
31836;SDS011;18401;49.344;6.240;2023-01-15T15:55:19;5.40;;;1.17;;
31836;SDS011;18401;49.344;6.240;2023-01-15T15:57:47;9.77;;;1.45;;
31836;SDS011;18401;49.344;6.240;2023-01-15T16:00:42;10.70;;;1.80;;
31836;SDS011;18401;49.344;6.240;2023-01-15T16:03:16;5.97;;;1.42;;
31836;SDS011;18401;49.344;6.240;2023-01-15T16:05:53;11.05;;;1.42;;
31836;SDS011;18401;49.344;6.240;2023-01-15T16:08:23;8.30;;;1.42;;
31836;SDS011;18401;49.344;6.240;2023-01-15T16:10:51;4.68;;;1.33;;
31836;SDS011;18401;49.344;6.240;2023-01-15T16:15:58;7.95;;;1.58;;
31836;SDS011;18401;49.344;6.240;2023-01-15T16:18:33;11.50;;;2.13;;
31836;SDS011;18401;49.344;6.240;2023-01-15T16:21:23;5.22;;;1.30;;
31836;SDS011;18401;49.344;6.240;2023-01-15T16:26:27;7.22;;;1.20;;
31836;SDS011;18401;49.344;6.240;2023-01-15T16:28:57;6.68;;;1.20;;
31836;SDS011;18401;49.344;6.240;2023-01-15T16:31:25;9.85;;;1.33;;
31836;SDS011;18401;49.344;6.240;2023-01-15T16:33:56;8.77;;;1.00;;
31836;SDS011;18401;49.344;6.240;2023-01-15T16:36:23;6.10;;;1.50;;
31836;SDS011;18401;49.344;6.240;2023-01-15T16:38:50;9.15;;;1.20;;
31836;SDS011;18401;49.344;6.240;2023-01-15T16:41:22;9.40;;;1.50;;
31836;SDS011;18401;49.344;6.240;2023-01-15T16:44:00;6.70;;;1.38;;
31836;SDS011;18401;49.344;6.240;2023-01-15T16:46:29;6.20;;;1.17;;
31836;SDS011;18401;49.344;6.240;2023-01-15T16:51:48;3.17;;;1.23;;
31836;SDS011;18401;49.344;6.240;2023-01-15T16:54:38;6.20;;;1.33;;
31836;SDS011;18401;49.344;6.240;2023-01-15T16:57:23;8.80;;;1.23;;
31836;SDS011;18401;49.344;6.240;2023-01-15T17:00:03;1.98;;;0.93;;
31836;SDS011;18401;49.344;6.240;2023-01-15T17:02:39;4.82;;;1.13;;
31836;SDS011;18401;49.344;6.240;2023-01-15T17:05:15;6.18;;;1.35;;
31836;SDS011;18401;49.344;6.240;2023-01-15T17:07:46;6.47;;;1.38;;
31836;SDS011;18401;49.344;6.240;2023-01-15T17:10:24;7.45;;;1.40;;
31836;SDS011;18401;49.344;6.240;2023-01-15T17:12:53;11.15;;;1.35;;
31836;SDS011;18401;49.344;6.240;2023-01-15T17:17:51;4.43;;;1.33;;
31836;SDS011;18401;49.344;6.240;2023-01-15T17:20:18;7.20;;;1.55;;
31836;SDS011;18401;49.344;6.240;2023-01-15T17:22:46;8.57;;;1.60;;
31836;SDS011;18401;49.344;6.240;2023-01-15T17:25:20;5.80;;;1.35;;
31836;SDS011;18401;49.344;6.240;2023-01-15T17:27:50;12.30;;;1.40;;